createdAt,value
2023-01-13T00:00:16.108Z,23.35
2023-01-13T00:02:43.628Z,27.33
2023-01-13T00:05:11.215Z,22.17
2023-01-13T00:07:40.348Z,23.60
2023-01-13T00:10:11.065Z,23.45
2023-01-13T00:12:42.035Z,24.75
2023-01-13T00:15:10.091Z,24.10
2023-01-13T00:17:38.911Z,25.60
2023-01-13T00:20:07.017Z,23.73
2023-01-13T00:22:35.230Z,24.95
2023-01-13T00:25:04.563Z,24.20
2023-01-13T00:27:34.969Z,24.20
2023-01-13T00:30:02.497Z,24.60
2023-01-13T00:32:29.831Z,22.58
2023-01-13T00:34:57.265Z,26.90
2023-01-13T00:37:24.760Z,29.80
2023-01-13T00:39:52.786Z,25.00
2023-01-13T00:42:38.683Z,25.67
2023-01-13T00:45:06.591Z,26.10
2023-01-13T00:47:33.909Z,20.98
2023-01-13T00:50:01.316Z,23.13
2023-01-13T00:52:28.622Z,24.85
2023-01-13T00:54:55.957Z,22.60
2023-01-13T00:57:23.269Z,23.92
2023-01-13T00:59:50.646Z,21.23
2023-01-13T01:02:18.058Z,22.55
2023-01-13T01:04:45.505Z,19.63
2023-01-13T01:07:13.061Z,21.70
2023-01-13T01:09:40.466Z,24.25
2023-01-13T01:12:07.851Z,25.95
2023-01-13T01:14:35.196Z,24.58
2023-01-13T01:17:02.557Z,29.50
2023-01-13T01:19:29.930Z,31.50
2023-01-13T01:21:57.240Z,34.17
2023-01-13T01:24:24.637Z,28.58
2023-01-13T01:26:51.930Z,29.77
2023-01-13T01:29:19.378Z,31.45
2023-01-13T01:31:46.885Z,27.37
2023-01-13T01:34:14.371Z,31.38
2023-01-13T01:36:41.676Z,26.88
2023-01-13T01:39:09.786Z,27.02
2023-01-13T01:41:37.329Z,23.90
2023-01-13T01:44:29.265Z,26.60
2023-01-13T01:46:56.717Z,27.20
2023-01-13T01:49:31.116Z,23.55
2023-01-13T01:52:02.334Z,33.80
2023-01-13T01:54:38.637Z,26.30
2023-01-13T01:57:06.690Z,30.60
2023-01-13T01:59:34.016Z,29.27
2023-01-13T02:02:01.540Z,27.42
2023-01-13T02:04:31.074Z,25.30
2023-01-13T02:06:58.656Z,25.77
2023-01-13T02:09:26.490Z,23.17
2023-01-13T02:12:12.496Z,22.02
2023-01-13T02:14:39.946Z,22.52
2023-01-13T02:17:10.250Z,19.08
2023-01-13T02:20:05.394Z,21.80
2023-01-13T02:22:59.957Z,19.53
2023-01-13T02:25:48.809Z,22.05
2023-01-13T02:29:02.669Z,20.92
2023-01-13T02:31:45.131Z,21.60
2023-01-13T02:34:17.837Z,20.27
2023-01-13T02:36:54.156Z,21.47
2023-01-13T02:39:31.245Z,24.85
2023-01-13T02:42:27.925Z,20.95
2023-01-13T02:45:07.179Z,21.77
2023-01-13T02:47:36.309Z,18.55
2023-01-13T02:50:05.631Z,16.77
2023-01-13T02:52:45.055Z,19.17
2023-01-13T02:55:23.711Z,19.27
2023-01-13T02:57:51.086Z,20.33
2023-01-13T03:00:18.874Z,21.92
2023-01-13T03:02:48.335Z,22.40
2023-01-13T03:05:16.050Z,16.20
2023-01-13T03:07:53.440Z,19.15
2023-01-13T03:10:54.164Z,20.35
2023-01-13T03:13:21.497Z,19.60
2023-01-13T03:15:59.094Z,23.37
2023-01-13T03:18:51.135Z,26.67
2023-01-13T03:21:26.111Z,26.40
2023-01-13T03:24:03.734Z,22.02
2023-01-13T03:26:38.911Z,18.40
2023-01-13T03:29:19.396Z,21.63
2023-01-13T03:32:03.893Z,19.40
2023-01-13T03:34:37.369Z,20.08
2023-01-13T03:37:06.537Z,24.60
2023-01-13T03:39:35.589Z,21.98
2023-01-13T03:42:06.780Z,20.43
2023-01-13T03:44:46.793Z,21.23
2023-01-13T03:47:26.618Z,22.85
2023-01-13T03:50:03.993Z,20.10
2023-01-13T03:52:33.741Z,17.00
2023-01-13T03:55:10.878Z,17.90
2023-01-13T03:58:00.286Z,17.20
2023-01-13T04:00:37.715Z,20.50
2023-01-13T04:03:07.871Z,20.13
2023-01-13T04:05:36.275Z,19.70
2023-01-13T04:08:23.498Z,18.13
2023-01-13T04:11:01.171Z,16.25
2023-01-13T04:13:30.295Z,16.85
2023-01-13T04:15:57.707Z,15.88
2023-01-13T04:18:27.019Z,19.88
2023-01-13T04:20:56.600Z,18.67
2023-01-13T04:23:24.310Z,19.70
2023-01-13T04:25:51.725Z,18.20
2023-01-13T04:28:19.275Z,17.75
2023-01-13T04:30:46.860Z,18.13
2023-01-13T04:33:14.820Z,17.60
2023-01-13T04:35:42.271Z,16.33
2023-01-13T04:38:11.851Z,19.10
2023-01-13T04:40:40.175Z,19.35
2023-01-13T04:43:07.538Z,17.95
2023-01-13T04:45:34.909Z,19.93
2023-01-13T04:48:02.280Z,19.48
2023-01-13T04:50:29.713Z,19.63
2023-01-13T04:52:57.096Z,19.63
2023-01-13T04:55:24.842Z,15.60
2023-01-13T04:57:52.260Z,16.80
2023-01-13T05:00:21.544Z,18.75
2023-01-13T05:02:52.042Z,19.17
2023-01-13T05:05:19.417Z,17.45
2023-01-13T05:07:46.747Z,18.08
2023-01-13T05:10:14.219Z,18.67
2023-01-13T05:13:00.049Z,16.88
2023-01-13T05:15:46.243Z,18.92
2023-01-13T05:18:13.580Z,20.08
2023-01-13T05:20:43.969Z,17.33
2023-01-13T05:23:29.742Z,19.60
2023-01-13T05:25:57.116Z,16.73
2023-01-13T05:28:24.381Z,19.90
2023-01-13T05:30:52.636Z,17.25
2023-01-13T05:33:22.741Z,17.00
2023-01-13T05:35:50.185Z,15.40
2023-01-13T05:38:18.205Z,15.77
2023-01-13T05:41:04.397Z,16.88
2023-01-13T05:43:33.221Z,21.20
2023-01-13T05:46:01.652Z,17.88
2023-01-13T05:48:31.803Z,18.20
2023-01-13T05:50:59.563Z,19.83
2023-01-13T05:53:29.625Z,18.17
2023-01-13T05:55:57.060Z,19.63
2023-01-13T05:58:25.810Z,23.17
2023-01-13T06:00:53.696Z,19.40
2023-01-13T06:03:21.159Z,18.95
2023-01-13T06:05:48.652Z,16.98
2023-01-13T06:08:16.064Z,20.35
2023-01-13T06:10:43.506Z,19.98
2023-01-13T06:13:11.081Z,20.83
2023-01-13T06:15:38.589Z,17.48
2023-01-13T06:18:06.096Z,16.42
2023-01-13T06:20:33.558Z,24.00
2023-01-13T06:23:01.058Z,20.85
2023-01-13T06:25:54.860Z,19.00
2023-01-13T06:28:22.573Z,20.30
2023-01-13T06:30:51.579Z,19.02
2023-01-13T06:33:21.384Z,21.58
2023-01-13T06:35:54.637Z,20.23
2023-01-13T06:38:22.085Z,20.03
2023-01-13T06:40:49.472Z,19.85
2023-01-13T06:43:17.576Z,18.45
2023-01-13T06:45:55.648Z,18.30
2023-01-13T06:48:28.366Z,23.58
2023-01-13T06:50:57.401Z,25.53
2023-01-13T06:53:25.196Z,18.48
2023-01-13T06:55:53.470Z,17.92
2023-01-13T06:58:21.889Z,19.27
2023-01-13T07:00:52.689Z,22.25
2023-01-13T07:03:20.468Z,19.03
2023-01-13T07:05:52.947Z,21.58
2023-01-13T07:08:32.379Z,20.15
2023-01-13T07:11:04.073Z,17.33
2023-01-13T07:13:50.372Z,20.90
2023-01-13T07:16:19.342Z,21.47
2023-01-13T07:18:47.203Z,22.05
2023-01-13T07:21:18.999Z,18.25
2023-01-13T07:23:47.314Z,19.27
2023-01-13T07:26:15.136Z,18.25
2023-01-13T07:28:43.418Z,19.00
2023-01-13T07:31:16.320Z,16.10
2023-01-13T07:33:44.092Z,19.00
2023-01-13T07:36:12.043Z,20.52
2023-01-13T07:38:40.088Z,18.88
2023-01-13T07:41:26.777Z,20.63
2023-01-13T07:43:54.590Z,20.38
2023-01-13T07:46:22.454Z,20.75
2023-01-13T07:48:50.377Z,17.17
2023-01-13T07:51:26.890Z,15.50
2023-01-13T07:53:57.268Z,11.23
2023-01-13T07:56:24.759Z,15.10
2023-01-13T07:58:55.567Z,18.27
2023-01-13T08:01:23.908Z,24.63
2023-01-13T08:03:52.813Z,24.83
2023-01-13T08:06:23.997Z,22.73
2023-01-13T08:08:51.665Z,21.10
2023-01-13T08:11:23.768Z,21.73
2023-01-13T08:13:58.347Z,18.35
2023-01-13T08:16:31.312Z,20.70
2023-01-13T08:19:00.985Z,21.97
2023-01-13T08:21:28.613Z,17.38
2023-01-13T08:24:30.078Z,18.83
2023-01-13T08:27:09.235Z,20.17
2023-01-13T08:29:39.731Z,20.27
2023-01-13T08:35:18.114Z,16.83
2023-01-13T08:37:46.162Z,14.52
2023-01-13T08:40:18.729Z,20.70
2023-01-13T08:42:48.606Z,17.35
2023-01-13T08:45:30.497Z,15.63
2023-01-13T08:48:00.599Z,15.45
2023-01-13T08:50:30.624Z,20.73
2023-01-13T08:52:59.161Z,15.70
2023-01-13T08:55:26.918Z,14.73
2023-01-13T08:58:03.405Z,18.73
2023-01-13T09:00:38.074Z,15.00
2023-01-13T09:03:05.496Z,17.15
2023-01-13T09:05:33.357Z,14.27
2023-01-13T09:08:00.797Z,17.92
2023-01-13T09:10:28.483Z,17.70
2023-01-13T09:13:14.277Z,17.77
2023-01-13T09:15:43.095Z,17.05
2023-01-13T09:18:14.107Z,17.45
2023-01-13T09:20:42.253Z,16.48
2023-01-13T09:23:12.864Z,22.47
2023-01-13T09:25:40.937Z,17.08
2023-01-13T09:28:08.844Z,15.07
2023-01-13T09:30:37.643Z,19.30
2023-01-13T09:33:23.632Z,17.55
2023-01-13T09:35:51.442Z,9.33
2023-01-13T09:38:19.130Z,18.75
2023-01-13T09:40:47.955Z,12.65
2023-01-13T09:43:38.724Z,19.05
2023-01-13T09:46:32.630Z,15.40
2023-01-13T09:49:00.238Z,14.70
2023-01-13T09:51:32.296Z,15.23
2023-01-13T09:54:32.221Z,19.50
2023-01-13T09:57:00.822Z,14.52
2023-01-13T09:59:33.515Z,16.77
2023-01-13T10:02:29.655Z,16.67
2023-01-13T10:05:23.608Z,14.20
2023-01-13T10:07:59.898Z,14.07
2023-01-13T10:10:43.637Z,18.02
2023-01-13T10:13:30.774Z,14.52
2023-01-13T10:16:07.038Z,11.57
2023-01-13T10:18:49.454Z,14.18
2023-01-13T10:21:52.978Z,12.10
2023-01-13T10:24:54.492Z,17.98
2023-01-13T10:27:25.610Z,12.18
2023-01-13T10:30:03.064Z,11.73
2023-01-13T10:32:45.674Z,13.55
2023-01-13T10:35:21.723Z,15.32
2023-01-13T10:37:56.942Z,13.52
2023-01-13T10:40:25.896Z,13.07
2023-01-13T10:43:07.005Z,15.27
2023-01-13T10:45:37.674Z,10.20
2023-01-13T10:48:07.767Z,16.60
2023-01-13T10:50:35.738Z,14.77
2023-01-13T10:53:25.486Z,13.57
2023-01-13T10:56:05.280Z,12.37
2023-01-13T10:58:43.575Z,12.88
2023-01-13T11:01:40.580Z,9.00
2023-01-13T11:08:24.100Z,14.75
2023-01-13T11:10:56.675Z,14.87
2023-01-13T11:13:38.662Z,15.00
2023-01-13T11:16:16.169Z,15.93
2023-01-13T11:19:02.527Z,15.20
2023-01-13T11:21:41.827Z,16.17
2023-01-13T11:24:18.426Z,14.43
2023-01-13T11:27:08.608Z,14.98
2023-01-13T11:29:43.120Z,13.73
2023-01-13T11:32:17.055Z,12.43
2023-01-13T11:34:46.253Z,14.93
2023-01-13T11:37:43.930Z,17.33
2023-01-13T11:40:25.252Z,14.93
2023-01-13T11:42:59.620Z,14.88
2023-01-13T11:45:35.900Z,12.30
2023-01-13T11:48:03.990Z,11.88
2023-01-13T11:50:51.713Z,18.00
2023-01-13T11:53:44.649Z,13.40
2023-01-13T11:56:25.471Z,13.45
2023-01-13T11:59:33.609Z,12.43
2023-01-13T12:02:26.869Z,10.20
2023-01-13T12:05:29.251Z,10.57
2023-01-13T12:08:00.468Z,14.43
2023-01-13T12:10:40.612Z,8.93
2023-01-13T12:13:31.508Z,12.20
2023-01-13T12:16:16.381Z,6.45
2023-01-13T12:18:56.179Z,14.50
2023-01-13T12:21:33.452Z,13.55
2023-01-13T12:24:10.934Z,12.18
2023-01-13T12:26:41.005Z,8.63
2023-01-13T12:29:35.523Z,8.52
2023-01-13T12:32:05.966Z,10.37
2023-01-13T12:34:57.395Z,12.77
2023-01-13T12:37:40.397Z,12.77
2023-01-13T12:40:29.159Z,15.43
2023-01-13T12:43:39.643Z,13.40
2023-01-13T12:46:20.115Z,16.10
2023-01-13T12:48:59.647Z,15.57
2023-01-13T12:51:34.560Z,14.95
2023-01-13T12:54:03.031Z,13.15
2023-01-13T12:56:44.828Z,14.15
2023-01-13T12:59:33.283Z,12.63
2023-01-13T13:02:13.089Z,13.15
2023-01-13T13:04:53.325Z,12.48
2023-01-13T13:07:52.246Z,13.27
2023-01-13T13:10:38.598Z,13.50
2023-01-13T13:13:41.023Z,10.53
2023-01-13T13:16:47.992Z,15.88
2023-01-13T13:19:18.142Z,14.70
2023-01-13T13:22:13.854Z,10.93
2023-01-13T13:24:42.079Z,14.20
2023-01-13T13:27:37.441Z,15.23
2023-01-13T13:30:20.231Z,15.55
2023-01-13T13:32:56.543Z,17.20
2023-01-13T13:35:31.993Z,14.95
2023-01-13T13:38:30.159Z,13.82
2023-01-13T13:41:16.477Z,13.40
2023-01-13T13:44:03.369Z,17.45
2023-01-13T13:46:48.185Z,19.42
2023-01-13T13:49:16.424Z,17.48
2023-01-13T13:51:53.055Z,15.45
2023-01-13T13:54:21.652Z,18.90
2023-01-13T13:56:50.413Z,22.52
2023-01-13T13:59:25.675Z,22.02
2023-01-13T14:02:01.665Z,24.23
2023-01-13T14:04:39.232Z,22.75
2023-01-13T14:07:21.215Z,24.90
2023-01-13T14:09:50.693Z,21.42
2023-01-13T14:12:26.032Z,37.17
2023-01-13T14:14:56.851Z,39.38
2023-01-13T14:17:28.577Z,39.65
2023-01-13T14:20:05.281Z,28.87
2023-01-13T14:22:32.872Z,27.33
2023-01-13T14:25:02.101Z,33.25
2023-01-13T14:27:30.609Z,45.72
2023-01-13T14:29:59.490Z,33.50
2023-01-13T14:32:32.875Z,25.90
2023-01-13T14:35:00.265Z,35.05
2023-01-13T14:37:39.708Z,47.63
2023-01-13T14:40:07.548Z,56.67
2023-01-13T14:42:35.701Z,59.25
2023-01-13T14:45:03.500Z,46.50
2023-01-13T14:47:33.966Z,37.60
2023-01-13T14:50:10.679Z,43.03
2023-01-13T14:52:47.749Z,36.88
2023-01-13T14:55:18.166Z,52.58
2023-01-13T14:57:47.100Z,38.40
2023-01-13T15:00:14.379Z,42.03
2023-01-13T15:02:47.974Z,30.48
2023-01-13T15:05:22.690Z,25.42
2023-01-13T15:08:11.847Z,25.40
2023-01-13T15:10:48.672Z,21.13
2023-01-13T15:13:26.331Z,25.27
2023-01-13T15:15:55.945Z,29.63
2023-01-13T15:18:23.313Z,24.27
2023-01-13T15:20:53.464Z,27.15
2023-01-13T15:23:21.121Z,27.00
2023-01-13T15:25:48.474Z,25.45
2023-01-13T15:28:25.551Z,21.45
2023-01-13T15:30:53.770Z,28.63
2023-01-13T15:33:21.768Z,28.50
2023-01-13T15:35:51.000Z,32.40
2023-01-13T15:38:20.236Z,32.53
2023-01-13T15:40:48.323Z,28.98
2023-01-13T15:43:41.236Z,37.65
2023-01-13T15:46:39.143Z,31.55
2023-01-13T15:49:44.750Z,24.53
2023-01-13T15:52:23.098Z,22.63
2023-01-13T15:54:51.283Z,25.85
2023-01-13T15:57:24.661Z,26.38
2023-01-13T15:59:53.493Z,27.17
2023-01-13T16:02:24.999Z,25.93
2023-01-13T16:04:54.039Z,25.27
2023-01-13T16:07:21.665Z,30.15
2023-01-13T16:09:49.045Z,32.03
2023-01-13T16:12:16.374Z,35.92
2023-01-13T16:14:43.818Z,31.33
2023-01-13T16:17:22.514Z,33.67
2023-01-13T16:19:49.982Z,35.85
2023-01-13T16:22:17.744Z,42.65
2023-01-13T16:24:45.210Z,51.50
2023-01-13T16:27:16.439Z,42.60
2023-01-13T16:29:43.977Z,39.15
2023-01-13T16:32:11.272Z,32.20
2023-01-13T16:34:38.690Z,39.28
2023-01-13T16:37:26.683Z,35.38
2023-01-13T16:39:54.179Z,35.03
2023-01-13T16:42:21.453Z,32.35
2023-01-13T16:44:49.822Z,28.67
2023-01-13T16:47:17.829Z,30.33
2023-01-13T16:49:45.399Z,27.58
2023-01-13T16:52:12.796Z,28.73
2023-01-13T16:54:40.238Z,21.98
2023-01-13T16:57:09.946Z,23.77
2023-01-13T16:59:37.311Z,20.50
2023-01-13T17:02:04.939Z,23.65
2023-01-13T17:04:32.287Z,21.80
2023-01-13T17:07:00.959Z,18.60
2023-01-13T17:09:28.630Z,16.90
2023-01-13T17:11:56.463Z,28.33
2023-01-13T17:14:24.415Z,26.80
2023-01-13T17:16:53.518Z,23.33
2023-01-13T17:19:22.669Z,23.63
2023-01-13T17:21:51.238Z,32.67
2023-01-13T17:24:18.766Z,30.70
2023-01-13T17:26:49.167Z,31.92
2023-01-13T17:29:18.262Z,27.47
2023-01-13T17:31:45.678Z,25.77
2023-01-13T17:34:13.470Z,28.13
2023-01-13T17:36:41.299Z,28.33
2023-01-13T17:39:19.503Z,25.15
2023-01-13T17:41:47.190Z,24.03
2023-01-13T17:44:15.436Z,25.10
2023-01-13T17:46:43.316Z,24.92
2023-01-13T17:49:11.570Z,28.10
2023-01-13T17:51:39.030Z,26.60
2023-01-13T17:54:06.601Z,25.37
2023-01-13T17:56:34.058Z,23.98
2023-01-13T17:59:01.607Z,25.20
2023-01-13T18:01:32.967Z,23.17
2023-01-13T18:04:00.752Z,21.05
2023-01-13T18:06:28.465Z,17.67
2023-01-13T18:08:55.896Z,25.45
2023-01-13T18:11:23.347Z,25.20
2023-01-13T18:13:52.349Z,22.58
2023-01-13T18:16:19.921Z,25.30
2023-01-13T18:18:49.337Z,20.20
2023-01-13T18:21:43.722Z,21.95
2023-01-13T18:24:30.931Z,22.52
2023-01-13T18:27:16.834Z,21.10
2023-01-13T18:29:44.196Z,23.70
2023-01-13T18:32:11.624Z,24.63
2023-01-13T18:34:39.281Z,21.33
2023-01-13T18:37:07.223Z,23.17
2023-01-13T18:39:34.870Z,22.77
2023-01-13T18:42:20.806Z,20.35
2023-01-13T18:44:48.323Z,21.90
2023-01-13T18:47:15.696Z,37.53
2023-01-13T18:49:43.124Z,33.13
2023-01-13T18:52:10.624Z,29.77
2023-01-13T18:54:38.040Z,27.95
2023-01-13T18:57:05.357Z,26.43
2023-01-13T18:59:34.676Z,22.88
2023-01-13T19:02:03.034Z,27.63
2023-01-13T19:04:32.107Z,27.40
2023-01-13T19:07:01.138Z,29.08
2023-01-13T19:09:31.485Z,25.13
2023-01-13T19:12:01.281Z,23.48
2023-01-13T19:14:34.549Z,23.02
2023-01-13T19:17:06.768Z,20.33
2023-01-13T19:19:34.142Z,28.05
2023-01-13T19:22:01.460Z,23.97
2023-01-13T19:24:28.842Z,24.02
2023-01-13T19:26:56.121Z,23.98
2023-01-13T19:29:23.464Z,27.38
2023-01-13T19:31:50.730Z,27.60
2023-01-13T19:34:18.564Z,28.30
2023-01-13T19:36:45.860Z,24.42
2023-01-13T19:39:14.110Z,25.25
2023-01-13T19:41:59.929Z,28.23
2023-01-13T19:44:45.869Z,24.58
2023-01-13T19:47:13.234Z,23.57
2023-01-13T19:49:40.514Z,24.17
2023-01-13T19:52:07.872Z,24.40
2023-01-13T19:54:35.228Z,23.20
2023-01-13T19:57:02.635Z,21.90
2023-01-13T19:59:29.992Z,23.47
2023-01-13T20:01:57.614Z,18.63
2023-01-13T20:04:37.667Z,25.65
2023-01-13T20:07:05.909Z,22.80
2023-01-13T20:09:34.033Z,24.63
2023-01-13T20:12:10.314Z,20.87
2023-01-13T20:14:37.682Z,22.33
2023-01-13T20:17:05.101Z,21.48
2023-01-13T20:19:32.489Z,29.00
2023-01-13T20:21:59.775Z,24.42
2023-01-13T20:24:27.263Z,29.33
2023-01-13T20:26:54.790Z,29.40
2023-01-13T20:29:22.182Z,29.90
2023-01-13T20:31:50.076Z,26.33
2023-01-13T20:34:20.296Z,27.63
2023-01-13T20:36:48.522Z,30.73
2023-01-13T20:39:17.354Z,23.45
2023-01-13T20:42:03.285Z,29.77
2023-01-13T20:44:30.727Z,28.98
2023-01-13T20:46:59.142Z,28.48
2023-01-13T20:49:27.476Z,28.30
2023-01-13T20:51:55.092Z,28.10
2023-01-13T20:54:22.505Z,30.05
2023-01-13T20:56:49.863Z,27.45
2023-01-13T20:59:17.308Z,27.58
2023-01-13T21:01:44.648Z,25.33
2023-01-13T21:04:12.082Z,26.88
2023-01-13T21:06:39.387Z,28.92
2023-01-13T21:09:06.851Z,28.10
2023-01-13T21:11:52.530Z,29.45
2023-01-13T21:14:40.167Z,32.63
2023-01-13T21:17:07.957Z,48.85
2023-01-13T21:19:35.224Z,52.00
2023-01-13T21:22:04.152Z,53.40
2023-01-13T21:24:31.447Z,40.65
2023-01-13T21:27:01.558Z,48.23
2023-01-13T21:29:28.939Z,45.15
2023-01-13T21:31:56.388Z,46.33
2023-01-13T21:34:23.720Z,43.55
2023-01-13T21:36:51.054Z,49.50
2023-01-13T21:39:18.517Z,50.33
2023-01-13T21:42:04.286Z,49.97
2023-01-13T21:44:49.896Z,42.40
2023-01-13T21:47:36.293Z,50.60
2023-01-13T21:50:04.162Z,44.13
2023-01-13T21:52:31.426Z,45.90
2023-01-13T21:55:17.369Z,45.22
2023-01-13T21:57:45.602Z,39.00
2023-01-13T22:00:13.359Z,46.80
2023-01-13T22:02:40.896Z,44.92
2023-01-13T22:05:08.867Z,48.53
2023-01-13T22:07:36.519Z,52.22
2023-01-13T22:10:04.580Z,43.80
2023-01-13T22:12:32.620Z,44.13
2023-01-13T22:14:59.921Z,46.25
2023-01-13T22:17:27.754Z,48.33
2023-01-13T22:19:57.259Z,42.83
2023-01-13T22:22:25.111Z,47.17
2023-01-13T22:24:52.984Z,42.72
2023-01-13T22:27:25.313Z,42.78
2023-01-13T22:29:52.840Z,36.07
2023-01-13T22:32:20.665Z,44.88
2023-01-13T22:34:48.455Z,41.20
2023-01-13T22:37:15.761Z,38.47
2023-01-13T22:39:43.194Z,42.40
2023-01-13T22:42:11.694Z,40.00
2023-01-13T22:44:39.081Z,39.10
2023-01-13T22:47:08.571Z,53.28
2023-01-13T22:49:35.931Z,47.15
2023-01-13T22:52:03.390Z,48.42
2023-01-13T22:54:30.747Z,43.93
2023-01-13T22:56:57.990Z,46.55
2023-01-13T22:59:25.476Z,50.55
2023-01-13T23:01:52.835Z,55.40
2023-01-13T23:04:20.241Z,49.35
2023-01-13T23:06:47.647Z,46.43
2023-01-13T23:09:15.119Z,47.33
2023-01-13T23:11:42.539Z,48.28
2023-01-13T23:14:11.195Z,44.47
2023-01-13T23:16:39.660Z,44.55
2023-01-13T23:19:07.303Z,45.53
2023-01-13T23:21:36.337Z,50.47
2023-01-13T23:24:04.628Z,55.85
2023-01-13T23:26:32.726Z,65.07
2023-01-13T23:29:01.226Z,63.80
2023-01-13T23:31:28.636Z,57.77
2023-01-13T23:33:55.983Z,58.80
2023-01-13T23:36:25.073Z,51.53
2023-01-13T23:38:52.806Z,51.38
2023-01-13T23:41:24.283Z,52.30
2023-01-13T23:43:53.065Z,41.93
2023-01-13T23:46:20.674Z,44.55
2023-01-13T23:48:48.546Z,37.90
2023-01-13T23:51:15.928Z,39.05
2023-01-13T23:53:45.098Z,38.22
2023-01-13T23:56:14.829Z,39.20
2023-01-13T23:58:42.648Z,36.63
